首页
METAR-TAF:

METAR-TAF

机场 :

Tekamah Municipal Airport

Tekamah, 內布拉斯加州, 美国

纬度: 41-46-01N, 经度: 096-10-40W, 海拔: 313米

当前天气观测

该预报发布于49分钟前的18:54 UTC
风速22节,风向西北,有时为32节阵风
温度 13°C
湿度 41%
气压 1017 hPa
能見度: 16.1公里
多云层高于6000英尺

METAR: KTQE 151854Z AUTO 32022G32KT 10SM BKN060 13/00 A3004 RMK AO2 PK WND 31036/1839 SLP168 T01330000

时间: 14:43 (19:43 UTC)


TAF: 丢失

超过4000个机场的气象观测和天气预报(METAR&TAF报告)。

可查询的气象台以黄色和红色小点在地图上表示。

将鼠标移到小点上方,可查看气象台名称。

然后点击查看天气观测和预报。

如需切换地图:点击带黑十字的绿色按钮放大地图;点击带横线的绿色按钮缩小地图;或者点击绿色箭头查看邻近地区的地图。


METAR-TAF: